Time;durP1;ratioP1;P1;durP2;ratioP2;P2;SDS_P1;SDS_P2;PMS_P1;PMS_P2;Temp;Humidity;BMP_temperature;BMP_pressure;BME280_temperature;BME280_humidity;BME280_pressure;Samples;Min_cycle;Max_cycle;Signal;HPM_P1;HPM_P2
2022/08/09 00:00:51;;;;;;;0.00;0.00;;;;;;;15.08;90.33;102663.47;4966805;28;20077;-66
2022/08/09 00:03:16;;;;;;;0.00;0.00;;;;;;;15.03;90.96;102662.91;4964908;28;20038;-69
2022/08/09 00:05:42;;;;;;;0.00;0.00;;;;;;;14.99;91.61;102657.72;4967618;28;20065;-71
2022/08/09 00:08:09;;;;;;;0.00;0.00;;;;;;;15.08;91.66;102650.84;4966344;28;20178;-70
2022/08/09 00:10:35;;;;;;;0.00;0.00;;;;;;;15.10;91.23;102654.28;4961688;28;20085;-70
2022/08/09 00:13:00;;;;;;;0.03;0.03;;;;;;;15.17;91.90;102657.44;4963433;28;20471;-70
2022/08/09 00:15:25;;;;;;;0.00;0.00;;;;;;;15.29;90.46;102648.47;4964309;28;20034;-70
2022/08/09 00:17:51;;;;;;;0.00;0.00;;;;;;;15.36;91.09;102648.91;4966212;28;20462;-67
2022/08/09 00:20:16;;;;;;;0.00;0.00;;;;;;;15.36;90.53;102648.91;4970148;28;20109;-67
2022/08/09 00:22:41;;;;;;;0.00;0.00;;;;;;;15.32;90.30;102646.53;4966432;28;20030;-67
2022/08/09 00:25:07;;;;;;;0.00;0.00;;;;;;;15.37;90.88;102647.06;4961688;28;20027;-67
2022/08/09 00:27:33;;;;;;;0.00;0.00;;;;;;;15.42;90.56;102650.34;4966140;28;20066;-67
2022/08/09 00:29:58;;;;;;;0.00;0.00;;;;;;;15.52;90.24;102645.97;4965057;28;20114;-67
2022/08/09 00:32:23;;;;;;;0.10;0.10;;;;;;;15.58;89.51;102642.84;4964382;28;20069;-67
2022/08/09 00:34:49;;;;;;;0.00;0.00;;;;;;;15.57;89.98;102646.53;4966499;28;20066;-66
2022/08/09 00:37:14;;;;;;;0.00;0.00;;;;;;;15.56;90.04;102642.09;4958501;28;20054;-70
2022/08/09 00:39:39;;;;;;;0.00;0.00;;;;;;;15.53;89.77;102645.00;4964102;28;20038;-71
2022/08/09 00:42:05;;;;;;;0.00;0.00;;;;;;;15.37;89.58;102644.38;4962044;28;20166;-71
2022/08/09 00:44:30;;;;;;;0.00;0.00;;;;;;;15.24;90.25;102637.09;4968556;28;20070;-71
2022/08/09 00:46:55;;;;;;;0.00;0.00;;;;;;;15.15;91.08;102632.34;4970434;28;20023;-70
2022/08/09 00:49:21;;;;;;;0.03;0.03;;;;;;;15.25;90.77;102652.34;4967514;28;20525;-70
2022/08/09 00:51:48;;;;;;;0.00;0.00;;;;;;;15.22;90.23;102647.19;4960022;28;20455;-71
2022/08/09 00:54:14;;;;;;;0.00;0.00;;;;;;;15.18;90.17;102642.94;4955806;28;20027;-71
2022/08/09 00:56:39;;;;;;;0.00;0.00;;;;;;;15.12;89.87;102656.88;4958171;28;20039;-71
2022/08/09 00:59:05;;;;;;;0.00;0.00;;;;;;;15.07;90.15;102656.31;4958885;28;20023;-70
2022/08/09 01:01:34;;;;;;;0.00;0.00;;;;;;;15.09;90.24;102652.56;4955669;28;20038;-70
2022/08/09 01:04:12;;;;;;;0.03;0.03;;;;;;;15.07;89.55;102651.81;4939031;28;20030;-70
2022/08/09 01:06:54;;;;;;;0.00;0.00;;;;;;;15.05;89.29;102658.28;4954200;28;20046;-71
2022/08/09 01:09:27;;;;;;;0.00;0.00;;;;;;;14.99;89.61;102655.00;4951914;28;20403;-71
2022/08/09 01:12:07;;;;;;;0.00;0.00;;;;;;;15.04;90.09;102656.53;4952246;28;20117;-71
2022/08/09 01:14:36;;;;;;;0.00;0.00;;;;;;;14.99;90.55;102655.00;4952366;28;20521;-71
2022/08/09 01:17:07;;;;;;;0.00;0.00;;;;;;;14.90;89.93;102647.53;4956154;28;20034;-71
2022/08/09 01:19:43;;;;;;;0.00;0.00;;;;;;;14.91;90.84;102662.78;4957432;28;20026;-71
2022/08/09 01:22:46;;;;;;;0.10;0.00;;;;;;;14.81;90.07;102661.66;4956461;28;20121;-70
2022/08/09 01:25:24;;;;;;;0.00;0.00;;;;;;;14.72;91.08;102659.56;4956208;28;20926;-70
2022/08/09 01:27:53;;;;;;;0.00;0.00;;;;;;;14.76;91.55;102659.28;4955874;28;20039;-70
2022/08/09 01:30:22;;;;;;;0.00;0.00;;;;;;;14.83;92.08;102651.63;4955588;28;20055;-66
2022/08/09 01:32:50;;;;;;;0.00;0.00;;;;;;;14.95;91.66;102656.22;4957914;28;20128;-66
2022/08/09 01:35:21;;;;;;;0.00;0.00;;;;;;;14.96;91.00;102652.50;4956880;28;20034;-66
2022/08/09 01:37:49;;;;;;;0.00;0.00;;;;;;;14.98;90.90;102655.97;4956944;28;20117;-66
2022/08/09 01:40:15;;;;;;;0.00;0.00;;;;;;;15.03;91.06;102654.78;4958292;28;20548;-70
2022/08/09 01:42:41;;;;;;;0.00;0.00;;;;;;;14.96;91.31;102646.25;4954904;28;20034;-70
2022/08/09 01:45:07;;;;;;;0.03;0.03;;;;;;;14.97;90.54;102647.97;4955278;28;20038;-70
2022/08/09 01:47:33;;;;;;;0.00;0.00;;;;;;;14.94;90.95;102651.78;4956671;28;20039;-70
2022/08/09 01:49:59;;;;;;;0.00;0.00;;;;;;;14.89;90.67;102651.22;4957325;28;20042;-67
2022/08/09 01:52:25;;;;;;;0.00;0.00;;;;;;;14.82;90.67;102649.88;4955734;28;20382;-69
2022/08/09 01:54:53;;;;;;;0.00;0.00;;;;;;;14.76;90.68;102648.47;4956002;28;20027;-70
2022/08/09 01:57:20;;;;;;;0.00;0.00;;;;;;;14.54;91.28;102633.66;4956311;28;20074;-70
2022/08/09 01:59:48;;;;;;;0.00;0.00;;;;;;;14.48;91.07;102639.44;4962659;28;20062;-70
2022/08/09 02:02:14;;;;;;;0.00;0.00;;;;;;;14.49;91.54;102651.13;4966184;28;20040;-70
2022/08/09 02:04:41;;;;;;;0.00;0.00;;;;;;;14.46;91.76;102665.72;4967366;28;20549;-70
2022/08/09 02:07:11;;;;;;;0.00;0.00;;;;;;;14.33;91.47;102664.75;4964807;28;20062;-70
2022/08/09 02:09:42;;;;;;;0.00;0.00;;;;;;;14.29;92.05;102674.91;4968921;28;20093;-70
2022/08/09 02:12:09;;;;;;;0.00;0.00;;;;;;;14.26;92.22;102667.00;4960132;28;20030;-70
2022/08/09 02:14:36;;;;;;;0.00;0.00;;;;;;;14.19;91.60;102671.94;4968957;28;20077;-66
2022/08/09 02:17:02;;;;;;;0.10;0.10;;;;;;;14.12;91.60;102662.47;4972347;28;20044;-66
2022/08/09 02:19:27;;;;;;;0.00;0.00;;;;;;;14.03;91.92;102671.19;4973758;28;20026;-66
2022/08/09 02:21:57;;;;;;;0.00;0.00;;;;;;;13.98;92.93;102666.06;4962814;28;20526;-66
2022/08/09 02:24:25;;;;;;;0.00;0.00;;;;;;;13.93;92.36;102669.06;4964075;28;20383;-66
2022/08/09 02:26:52;;;;;;;0.00;0.00;;;;;;;13.88;93.27;102668.47;4967351;28;20046;-66
2022/08/09 02:29:22;;;;;;;0.10;0.10;;;;;;;13.89;93.90;102670.22;4966829;28;20466;-66
2022/08/09 02:31:48;;;;;;;0.08;0.08;;;;;;;13.85;92.78;102662.41;4965934;28;20039;-66
2022/08/09 02:34:17;;;;;;;0.00;0.00;;;;;;;13.79;93.43;102659.13;4968677;28;20109;-66
2022/08/09 02:36:46;;;;;;;0.10;0.10;;;;;;;13.76;93.57;102659.31;4965557;28;20132;-67
2022/08/09 02:39:15;;;;;;;0.00;0.00;;;;;;;13.75;93.46;102665.69;4990746;28;20094;-69
2022/08/09 02:41:43;;;;;;;0.00;0.00;;;;;;;13.75;95.33;102648.63;4959067;28;20030;-70
2022/08/09 02:44:15;;;;;;;0.00;0.00;;;;;;;13.87;95.60;102668.59;4968217;28;20034;-70
2022/08/09 02:46:43;;;;;;;0.00;0.00;;;;;;;13.92;96.16;102652.94;4972936;28;20065;-70
2022/08/09 02:49:11;;;;;;;0.00;0.00;;;;;;;13.98;95.87;102657.97;4966485;28;20114;-66
2022/08/09 02:51:38;;;;;;;0.00;0.00;;;;;;;13.98;95.13;102654.41;4966765;28;20068;-67
2022/08/09 02:54:05;;;;;;;0.00;0.00;;;;;;;14.08;95.50;102650.13;4956996;28;20034;-66
2022/08/09 02:56:31;;;;;;;0.00;0.00;;;;;;;13.80;95.56;102609.56;4959145;28;21044;-66
2022/08/09 02:58:58;;;;;;;0.00;0.00;;;;;;;14.02;95.92;102647.84;4966199;28;20031;-68
2022/08/09 03:01:24;;;;;;;0.00;0.00;;;;;;;14.08;95.44;102645.63;4965090;28;20034;-67
2022/08/09 03:03:49;;;;;;;0.00;0.00;;;;;;;14.08;95.21;102644.72;4957534;28;20063;-68
2022/08/09 03:06:16;;;;;;;0.10;0.10;;;;;;;14.05;94.85;102640.41;4953655;28;20466;-67
2022/08/09 03:08:45;;;;;;;0.00;0.00;;;;;;;14.02;95.45;102645.16;4954874;28;20037;-67
2022/08/09 03:11:16;;;;;;;0.00;0.00;;;;;;;14.06;95.36;102649.38;4956628;28;20096;-68
2022/08/09 03:13:43;;;;;;;0.00;0.00;;;;;;;14.03;94.35;102650.44;4954562;28;20105;-67
2022/08/09 03:16:09;;;;;;;0.05;0.05;;;;;;;13.95;94.38;102642.84;4956168;28;20445;-67
2022/08/09 03:18:35;;;;;;;0.00;0.00;;;;;;;13.78;94.95;102613.31;4956131;28;20026;-67
2022/08/09 03:21:01;;;;;;;0.00;0.00;;;;;;;13.87;95.01;102642.44;4953625;28;20062;-67
2022/08/09 03:23:27;;;;;;;0.00;0.00;;;;;;;13.78;94.75;102640.31;4959787;28;20039;-67
2022/08/09 03:25:53;;;;;;;0.00;0.00;;;;;;;13.86;95.35;102643.41;4955693;28;20092;-67
2022/08/09 03:28:20;;;;;;;0.10;0.10;;;;;;;13.86;95.35;102647.94;4957782;28;20059;-67
2022/08/09 03:30:45;;;;;;;0.00;0.00;;;;;;;13.75;94.54;102648.63;4954742;28;20481;-71
2022/08/09 03:33:12;;;;;;;0.00;0.00;;;;;;;13.71;95.72;102650.63;4959589;28;20074;-71
2022/08/09 03:35:37;;;;;;;0.10;0.10;;;;;;;13.73;97.01;102658.66;4954955;28;20085;-71
2022/08/09 03:38:02;;;;;;;0.05;0.05;;;;;;;13.76;97.22;102653.06;4953619;28;20081;-67
2022/08/09 03:40:28;;;;;;;0.00;0.00;;;;;;;13.73;96.43;102650.56;4956005;28;20152;-67
2022/08/09 03:42:53;;;;;;;0.00;0.00;;;;;;;13.62;96.01;102657.47;4956825;28;20036;-67
2022/08/09 03:45:18;;;;;;;0.00;0.00;;;;;;;13.66;96.02;102658.16;4956200;28;20699;-68
2022/08/09 03:47:44;;;;;;;0.00;0.00;;;;;;;13.64;95.75;102651.97;4955443;28;20086;-67
2022/08/09 03:50:10;;;;;;;0.10;0.10;;;;;;;13.66;96.03;102655.44;4955659;28;20034;-67
2022/08/09 03:52:37;;;;;;;0.05;0.05;;;;;;;13.69;96.25;102657.97;4953740;28;20138;-67
2022/08/09 03:55:04;;;;;;;0.00;0.00;;;;;;;13.68;96.55;102661.63;4955453;28;20108;-67
2022/08/09 03:57:30;;;;;;;0.00;0.00;;;;;;;13.68;96.47;102664.31;4952700;28;20438;-67
2022/08/09 03:59:55;;;;;;;0.00;0.00;;;;;;;13.56;97.27;102638.97;4952099;28;20041;-68
2022/08/09 04:02:25;;;;;;;0.00;0.00;;;;;;;13.60;95.28;102662.09;4946962;28;20406;-67
2022/08/09 04:04:50;;;;;;;0.00;0.00;;;;;;;13.53;96.10;102655.34;4949304;28;20557;-68
2022/08/09 04:07:16;;;;;;;0.00;0.00;;;;;;;13.47;95.41;102659.28;4946484;28;20062;-67
2022/08/09 04:09:41;;;;;;;0.00;0.00;;;;;;;13.40;94.97;102657.88;4951580;28;20448;-67
2022/08/09 04:12:09;;;;;;;0.00;0.00;;;;;;;13.35;95.26;102660.88;4950883;28;20735;-67
2022/08/09 04:14:35;;;;;;;0.00;0.00;;;;;;;13.30;95.83;102652.19;4956969;28;20145;-67
2022/08/09 04:17:01;;;;;;;0.00;0.00;;;;;;;13.30;95.31;102645.94;4955676;28;20031;-67
2022/08/09 04:19:26;;;;;;;0.00;0.00;;;;;;;13.24;94.90;102654.41;4959252;28;20026;-68
2022/08/09 04:21:51;;;;;;;0.00;0.00;;;;;;;13.21;94.74;102660.84;4953714;28;20043;-68
2022/08/09 04:24:17;;;;;;;0.00;0.00;;;;;;;13.12;94.99;102664.09;4962291;28;20459;-68
2022/08/09 04:26:42;;;;;;;0.10;0.10;;;;;;;13.02;95.11;102667.31;4956000;28;20069;-68
2022/08/09 04:29:08;;;;;;;0.08;0.08;;;;;;;12.99;96.56;102659.41;4953534;28;20031;-68
2022/08/09 04:31:33;;;;;;;0.00;0.00;;;;;;;12.97;96.15;102669.44;4958368;28;20077;-68
2022/08/09 04:33:59;;;;;;;0.00;0.00;;;;;;;12.77;96.78;102649.03;4959377;28;20278;-68
2022/08/09 04:36:29;;;;;;;0.00;0.00;;;;;;;12.99;97.07;102675.59;4955236;28;20479;-67
2022/08/09 04:38:58;;;;;;;0.00;0.00;;;;;;;12.95;96.73;102668.66;4954809;28;20038;-67
2022/08/09 04:41:23;;;;;;;0.00;0.00;;;;;;;13.07;97.62;102685.06;4955681;28;20026;-67
2022/08/09 04:43:49;;;;;;;0.00;0.00;;;;;;;13.02;96.33;102683.50;4952516;28;20057;-68
2022/08/09 04:46:14;;;;;;;0.00;0.00;;;;;;;13.04;97.34;102688.81;4955280;28;20390;-67
2022/08/09 04:48:40;;;;;;;0.00;0.00;;;;;;;12.99;96.90;102683.69;4957229;28;20130;-67
2022/08/09 04:51:05;;;;;;;0.00;0.00;;;;;;;13.01;97.89;102678.22;4954256;28;20070;-67
2022/08/09 04:53:30;;;;;;;0.10;0.10;;;;;;;12.98;98.15;102670.31;4962778;28;20041;-69
2022/08/09 04:55:56;;;;;;;0.00;0.00;;;;;;;13.11;98.12;102694.72;4965378;28;20212;-69
2022/08/09 04:58:21;;;;;;;0.00;0.00;;;;;;;13.15;98.57;102689.03;4957846;28;20053;-69
2022/08/09 05:00:46;;;;;;;0.00;0.00;;;;;;;13.22;98.83;102692.25;4957908;28;20546;-68
2022/08/09 05:03:13;;;;;;;0.00;0.00;;;;;;;13.25;98.96;102693.91;4961499;28;20869;-69
2022/08/09 05:05:38;;;;;;;0.00;0.00;;;;;;;13.29;99.21;102700.84;4958029;28;20110;-68
2022/08/09 05:08:03;;;;;;;0.03;0.03;;;;;;;13.35;100.00;102704.03;4959809;28;20122;-72
2022/08/09 05:10:29;;;;;;;0.00;0.00;;;;;;;13.48;99.55;102697.94;4956231;28;20057;-69
2022/08/09 05:12:54;;;;;;;0.00;0.00;;;;;;;13.54;99.90;102688.59;4955182;28;20050;-71
2022/08/09 05:15:20;;;;;;;0.00;0.00;;;;;;;13.72;100.00;102700.09;4957043;28;20034;-69
2022/08/09 05:17:45;;;;;;;0.08;0.08;;;;;;;13.80;99.53;102698.66;4964093;28;20023;-69
2022/08/09 05:20:10;;;;;;;0.10;0.10;;;;;;;13.92;99.71;102706.94;4957569;28;20106;-68
2022/08/09 05:22:36;;;;;;;0.05;0.05;;;;;;;14.03;100.00;102703.59;4967457;28;20023;-68
2022/08/09 05:25:02;;;;;;;0.00;0.00;;;;;;;14.19;100.00;102703.47;4968072;28;20058;-68
2022/08/09 05:27:28;;;;;;;0.00;0.00;;;;;;;14.07;100.00;102670.88;4956699;28;20046;-68
2022/08/09 05:29:53;;;;;;;0.00;0.00;;;;;;;14.37;100.00;102707.72;4967033;28;20035;-68
2022/08/09 05:32:19;;;;;;;0.05;0.05;;;;;;;14.50;100.00;102715.00;4965025;28;20034;-69
2022/08/09 05:34:44;;;;;;;0.03;0.03;;;;;;;14.64;100.00;102719.53;4955679;28;20050;-69
2022/08/09 05:37:10;;;;;;;0.00;0.00;;;;;;;14.72;100.00;102714.53;4951404;28;20138;-70
2022/08/09 05:39:36;;;;;;;0.00;0.00;;;;;;;14.84;100.00;102716.41;4966476;28;20041;-70
2022/08/09 05:42:02;;;;;;;0.00;0.00;;;;;;;14.96;100.00;102720.13;4966423;28;20030;-69
2022/08/09 05:44:27;;;;;;;0.10;0.10;;;;;;;15.07;99.81;102715.84;4967861;28;20030;-69
2022/08/09 05:46:53;;;;;;;0.03;0.03;;;;;;;15.04;99.54;102683.59;4970394;28;20074;-69
2022/08/09 05:49:18;;;;;;;0.00;0.00;;;;;;;15.36;99.42;102713.00;4964027;28;20066;-69
2022/08/09 05:51:43;;;;;;;0.00;0.00;;;;;;;15.51;98.48;102709.22;4969728;28;20070;-69
2022/08/09 05:54:09;;;;;;;0.00;0.00;;;;;;;15.65;97.86;102710.13;4967959;28;20071;-69
2022/08/09 05:56:34;;;;;;;0.00;0.00;;;;;;;15.71;97.31;102710.53;4966440;28;20023;-69
2022/08/09 05:58:59;;;;;;;0.00;0.00;;;;;;;15.66;97.52;102696.44;4966951;28;20073;-69
2022/08/09 06:01:27;;;;;;;0.10;0.10;;;;;;;15.82;96.99;102703.53;4965949;28;20030;-70
2022/08/09 06:03:53;;;;;;;0.00;0.00;;;;;;;16.02;96.19;102716.53;4965370;28;20035;-70
2022/08/09 06:06:18;;;;;;;0.00;0.00;;;;;;;16.15;95.79;102713.81;4971524;28;20027;-70
2022/08/09 06:08:44;;;;;;;0.00;0.00;;;;;;;16.28;95.47;102723.78;4966046;28;20421;-70
2022/08/09 06:11:09;;;;;;;0.00;0.00;;;;;;;16.32;95.57;102726.16;4955991;28;20110;-70
2022/08/09 06:13:34;;;;;;;0.00;0.00;;;;;;;16.42;94.60;102720.06;4966107;28;20050;-70
2022/08/09 06:16:04;;;;;;;0.10;0.10;;;;;;;16.61;93.73;102734.00;4959026;28;20031;-69
2022/08/09 06:18:29;;;;;;;0.00;0.00;;;;;;;16.69;93.43;102741.56;4966038;28;20415;-69
2022/08/09 06:20:55;;;;;;;0.00;0.00;;;;;;;16.83;93.04;102735.09;4962921;28;20034;-70
2022/08/09 06:23:21;;;;;;;0.00;0.00;;;;;;;16.92;92.56;102731.72;4965740;28;20502;-69
2022/08/09 06:25:46;;;;;;;0.00;0.00;;;;;;;17.06;91.93;102736.13;4965518;28;20367;-71
2022/08/09 06:28:11;;;;;;;0.00;0.00;;;;;;;17.17;91.54;102738.03;4957731;28;20038;-70
2022/08/09 06:30:37;;;;;;;0.00;0.00;;;;;;;17.23;90.52;102733.97;4962433;28;20058;-69
2022/08/09 06:33:02;;;;;;;0.00;0.00;;;;;;;17.36;90.59;102740.19;4967071;28;20034;-69
2022/08/09 06:35:28;;;;;;;0.00;0.00;;;;;;;17.38;89.55;102712.94;4961888;28;20057;-69
2022/08/09 06:37:53;;;;;;;0.00;0.00;;;;;;;17.62;89.25;102744.59;4962956;28;20522;-69
2022/08/09 06:40:19;;;;;;;0.00;0.00;;;;;;;17.76;88.64;102746.22;4965516;28;20117;-70
2022/08/09 06:42:44;;;;;;;0.00;0.00;;;;;;;17.86;87.51;102738.22;4963123;28;20069;-71
2022/08/09 06:45:10;;;;;;;0.00;0.00;;;;;;;17.95;87.53;102732.06;4966864;28;20117;-72
2022/08/09 06:47:35;;;;;;;0.00;0.00;;;;;;;18.08;87.34;102740.97;4966876;28;20027;-71
2022/08/09 06:50:00;;;;;;;0.00;0.00;;;;;;;18.16;86.61;102740.34;4964706;28;20386;-71
2022/08/09 06:52:26;;;;;;;0.00;0.00;;;;;;;18.28;86.53;102741.22;4961089;28;20109;-71
2022/08/09 06:54:51;;;;;;;0.00;0.00;;;;;;;18.40;86.69;102748.41;4963739;28;20050;-71
2022/08/09 06:57:16;;;;;;;0.00;0.00;;;;;;;18.41;86.06;102733.81;4966150;28;20149;-71
2022/08/09 06:59:42;;;;;;;0.00;0.00;;;;;;;18.50;84.59;102751.22;4964767;28;20098;-71
2022/08/09 07:02:07;;;;;;;0.00;0.00;;;;;;;18.61;85.44;102755.78;4965424;28;20565;-71
2022/08/09 07:04:33;;;;;;;0.00;0.00;;;;;;;18.68;84.08;102754.28;4959570;28;20023;-71
2022/08/09 07:06:58;;;;;;;0.00;0.00;;;;;;;18.77;83.58;102759.97;4962316;28;20529;-71
2022/08/09 07:09:23;;;;;;;0.00;0.00;;;;;;;18.84;83.37;102756.63;4963959;28;20035;-71
2022/08/09 07:11:49;;;;;;;0.00;0.00;;;;;;;18.72;83.32;102724.97;4961791;28;20069;-71
2022/08/09 07:14:16;;;;;;;0.00;0.00;;;;;;;18.97;82.38;102752.88;4961771;28;20026;-71
2022/08/09 07:16:42;;;;;;;0.00;0.00;;;;;;;19.00;82.51;102760.78;4965471;28;20104;-72
2022/08/09 07:19:10;;;;;;;0.00;0.00;;;;;;;19.16;82.43;102750.38;4961941;28;20094;-71
2022/08/09 07:21:36;;;;;;;0.00;0.00;;;;;;;19.28;81.04;102753.91;4965351;28;20033;-71
2022/08/09 07:24:01;;;;;;;0.10;0.00;;;;;;;19.31;81.61;102761.81;4962784;28;20034;-73
2022/08/09 07:26:28;;;;;;;0.00;0.00;;;;;;;19.50;80.95;102760.22;4963780;28;20031;-71
2022/08/09 07:28:53;;;;;;;0.00;0.00;;;;;;;19.67;80.42;102755.16;4965678;28;20432;-71
2022/08/09 07:31:18;;;;;;;0.00;0.00;;;;;;;19.79;80.30;102759.56;4964771;28;20512;-71
2022/08/09 07:33:44;;;;;;;0.00;0.00;;;;;;;19.73;78.96;102732.84;4962336;28;20463;-71
2022/08/09 07:36:09;;;;;;;0.00;0.00;;;;;;;19.86;77.47;102757.16;4966287;28;20038;-71
2022/08/09 07:38:35;;;;;;;0.00;0.00;;;;;;;19.99;77.40;102743.34;4964820;28;20027;-71
2022/08/09 07:41:00;;;;;;;0.00;0.00;;;;;;;20.11;76.90;102753.19;4963142;28;20042;-72
2022/08/09 07:43:26;;;;;;;0.00;0.00;;;;;;;20.18;78.07;102757.06;4965268;28;20055;-74
2022/08/09 07:45:51;;;;;;;0.00;0.00;;;;;;;20.37;77.32;102760.91;4961753;28;20067;-73
2022/08/09 07:48:16;;;;;;;0.00;0.00;;;;;;;20.39;77.09;102769.81;4963655;28;20078;-73
2022/08/09 07:50:42;;;;;;;0.00;0.00;;;;;;;20.39;76.25;102753.44;4965573;28;20458;-73
2022/08/09 07:53:07;;;;;;;0.00;0.00;;;;;;;20.59;76.52;102761.69;4959947;28;20142;-71
2022/08/09 07:55:33;;;;;;;0.00;0.00;;;;;;;20.57;75.67;102756.34;4958167;28;20031;-74
2022/08/09 07:57:59;;;;;;;0.00;0.00;;;;;;;20.74;74.63;102771.19;4963486;28;20026;-71
2022/08/09 08:00:24;;;;;;;0.00;0.00;;;;;;;20.66;75.76;102763.72;4962831;28;20470;-72
2022/08/09 08:02:50;;;;;;;0.00;0.00;;;;;;;20.73;75.60;102749.50;4964065;28;20546;-71
2022/08/09 08:05:16;;;;;;;0.00;0.00;;;;;;;20.95;74.72;102762.06;4964216;28;20487;-71
2022/08/09 08:07:41;;;;;;;0.00;0.00;;;;;;;21.04;72.23;102769.41;4958547;28;20344;-70
2022/08/09 08:10:07;;;;;;;0.00;0.00;;;;;;;20.97;72.93;102760.06;4957225;28;20031;-72
2022/08/09 08:12:32;;;;;;;0.00;0.00;;;;;;;21.20;72.61;102771.59;4958306;28;20062;-71
2022/08/09 08:14:58;;;;;;;0.00;0.00;;;;;;;21.31;72.80;102780.66;4963473;28;20113;-72
2022/08/09 08:17:23;;;;;;;0.03;0.00;;;;;;;21.24;72.00;102762.09;4958062;28;20489;-72
2022/08/09 08:19:48;;;;;;;0.00;0.00;;;;;;;21.37;72.08;102772.72;4965148;28;20042;-71
2022/08/09 08:22:14;;;;;;;0.00;0.00;;;;;;;21.34;71.03;102764.81;4962927;28;20041;-70
2022/08/09 08:24:39;;;;;;;0.00;0.00;;;;;;;21.48;70.60;102766.25;4964928;28;20059;-72
2022/08/09 08:27:04;;;;;;;0.00;0.00;;;;;;;21.55;71.08;102758.31;4966727;28;20061;-71
2022/08/09 08:29:30;;;;;;;0.00;0.00;;;;;;;21.67;69.55;102757.22;4966823;28;20035;-71
2022/08/09 08:31:55;;;;;;;0.00;0.00;;;;;;;21.70;68.86;102742.38;4971463;28;20481;-72
2022/08/09 08:34:21;;;;;;;0.00;0.00;;;;;;;21.83;68.91;102766.66;4965833;28;20034;-71
2022/08/09 08:36:46;;;;;;;0.00;0.00;;;;;;;21.94;69.28;102766.50;4963799;28;20463;-72
2022/08/09 08:39:12;;;;;;;0.00;0.00;;;;;;;22.06;67.75;102772.66;4965048;28;20487;-70
2022/08/09 08:41:37;;;;;;;0.00;0.00;;;;;;;22.10;67.67;102770.47;4965387;28;20034;-71
2022/08/09 08:44:03;;;;;;;0.00;0.00;;;;;;;22.18;66.49;102760.50;4963769;28;20022;-70
2022/08/09 08:46:39;;;;;;;0.00;0.00;;;;;;;22.08;66.34;102762.44;4962488;28;20625;-72
2022/08/09 08:49:06;;;;;;;0.00;0.00;;;;;;;22.10;68.08;102765.00;4962224;28;20410;-71
2022/08/09 08:51:31;;;;;;;0.00;0.00;;;;;;;22.14;69.47;102767.28;4967894;28;20030;-72
2022/08/09 08:53:57;;;;;;;0.00;0.00;;;;;;;22.31;67.94;102772.97;4968256;28;20558;-72
2022/08/09 08:56:22;;;;;;;0.00;0.00;;;;;;;22.52;67.06;102769.16;4965179;28;20034;-72
2022/08/09 08:58:48;;;;;;;0.00;0.00;;;;;;;22.55;66.22;102777.94;4962757;28;20073;-73
2022/08/09 09:01:15;;;;;;;0.00;0.00;;;;;;;22.66;66.25;102774.13;4969283;28;20054;-72
2022/08/09 09:03:41;;;;;;;0.00;0.00;;;;;;;22.77;66.20;102781.28;4956910;28;20312;-72
2022/08/09 09:06:09;;;;;;;0.00;0.00;;;;;;;22.87;67.29;102771.13;4963120;28;20568;-72
2022/08/09 09:08:38;;;;;;;0.00;0.00;;;;;;;22.98;63.78;102782.88;4961325;28;20019;-72
2022/08/09 09:11:05;;;;;;;0.00;0.00;;;;;;;23.05;64.16;102773.00;4957353;28;20509;-72
2022/08/09 09:13:31;;;;;;;0.00;0.00;;;;;;;22.95;62.14;102781.28;4961251;28;20471;-72
2022/08/09 09:15:56;;;;;;;0.00;0.00;;;;;;;23.02;62.98;102771.44;4964977;28;20037;-73
2022/08/09 09:18:22;;;;;;;0.00;0.00;;;;;;;23.30;61.18;102778.78;4962269;28;20035;-72
2022/08/09 09:20:47;;;;;;;0.00;0.00;;;;;;;23.41;61.38;102783.16;4970102;28;20066;-73
2022/08/09 09:23:12;;;;;;;0.00;0.00;;;;;;;23.42;61.23;102777.50;4965160;28;20398;-73
2022/08/09 09:25:40;;;;;;;0.00;0.00;;;;;;;23.59;60.57;102775.75;4966130;28;20037;-73
2022/08/09 09:28:07;;;;;;;0.00;0.00;;;;;;;23.63;62.18;102782.66;4965233;28;20550;-71
2022/08/09 09:30:33;;;;;;;0.00;0.00;;;;;;;23.77;60.34;102774.84;4963530;28;20117;-74
2022/08/09 09:33:09;;;;;;;0.00;0.00;;;;;;;23.84;58.45;102781.41;4965595;28;20031;-72
2022/08/09 09:35:58;;;;;;;0.00;0.00;;;;;;;23.76;58.72;102789.56;4961397;28;20159;-70
2022/08/09 09:38:39;;;;;;;0.00;0.00;;;;;;;23.63;58.76;102782.66;4961946;28;20022;-72
2022/08/09 09:41:04;;;;;;;0.00;0.00;;;;;;;23.87;58.90;102775.63;4963322;28;20522;-72
2022/08/09 09:43:31;;;;;;;0.00;0.00;;;;;;;24.03;57.71;102774.00;4961801;28;20130;-71
2022/08/09 09:45:56;;;;;;;0.00;0.00;;;;;;;24.02;56.85;102773.16;4964379;28;20026;-73
2022/08/09 09:48:22;;;;;;;0.00;0.00;;;;;;;23.81;58.79;102749.69;4961680;28;20151;-73
2022/08/09 09:50:49;;;;;;;0.00;0.00;;;;;;;23.66;54.92;102775.97;4938756;28;20043;-71
2022/08/09 09:53:18;;;;;;;0.00;0.00;;;;;;;23.72;58.95;102769.84;4963802;28;20030;-73
2022/08/09 09:55:56;;;;;;;0.00;0.00;;;;;;;24.05;58.62;102778.34;4963206;28;20037;-71
2022/08/09 09:58:22;;;;;;;0.00;0.00;;;;;;;24.18;57.42;102783.38;4965083;28;20034;-69
2022/08/09 10:00:52;;;;;;;0.00;0.00;;;;;;;24.23;56.85;102772.75;4966780;28;20577;-73
2022/08/09 10:03:36;;;;;;;0.00;0.00;;;;;;;24.33;57.57;102782.75;4965520;28;20114;-70
2022/08/09 10:06:01;;;;;;;0.00;0.00;;;;;;;24.44;56.39;102771.50;4964010;28;20039;-70
2022/08/09 10:08:26;;;;;;;0.00;0.00;;;;;;;24.40;58.05;102778.34;4963045;28;20391;-71
2022/08/09 10:10:52;;;;;;;0.00;0.00;;;;;;;24.02;54.38;102769.53;4964721;28;20433;-69
2022/08/09 10:13:18;;;;;;;0.00;0.00;;;;;;;24.42;56.96;102759.81;4963186;28;20422;-70
2022/08/09 10:15:48;;;;;;;0.00;0.00;;;;;;;24.89;53.12;102779.56;4962910;28;20033;-70
2022/08/09 10:18:13;;;;;;;0.00;0.00;;;;;;;25.07;51.57;102784.91;4961661;28;20456;-71
2022/08/09 10:20:41;;;;;;;0.00;0.00;;;;;;;25.13;52.58;102774.09;4965153;28;20033;-70
2022/08/09 10:23:15;;;;;;;0.00;0.00;;;;;;;25.43;50.82;102779.13;4961953;28;20077;-71
2022/08/09 10:25:42;;;;;;;0.00;0.00;;;;;;;25.54;50.58;102775.19;4967399;28;20369;-71
2022/08/09 10:28:08;;;;;;;0.00;0.00;;;;;;;25.74;50.31;102773.78;4964435;28;20062;-72
2022/08/09 10:30:33;;;;;;;0.00;0.00;;;;;;;25.98;49.00;102772.00;4962081;28;20038;-70
2022/08/09 10:32:59;;;;;;;0.00;0.00;;;;;;;26.02;48.16;102769.75;4968399;28;20026;-71
2022/08/09 10:35:24;;;;;;;0.00;0.00;;;;;;;25.96;47.71;102768.56;4963668;28;20474;-71
2022/08/09 10:37:50;;;;;;;0.00;0.00;;;;;;;25.82;51.20;102755.56;4963037;28;20077;-71
2022/08/09 10:40:15;;;;;;;0.00;0.00;;;;;;;26.18;48.93;102757.88;4965971;28;20042;-70
2022/08/09 10:42:41;;;;;;;0.00;0.00;;;;;;;26.14;46.88;102751.00;4962258;28;20069;-71
2022/08/09 10:45:09;;;;;;;0.00;0.00;;;;;;;26.23;46.09;102727.94;4962699;28;20031;-69
2022/08/09 10:47:47;;;;;;;0.00;0.00;;;;;;;26.61;45.92;102754.75;4959809;28;20078;-70
2022/08/09 10:50:23;;;;;;;0.00;0.00;;;;;;;26.56;46.86;102738.78;4964737;28;20490;-70
2022/08/09 10:52:59;;;;;;;0.00;0.00;;;;;;;26.69;45.63;102742.84;4961024;28;20043;-72
2022/08/09 10:55:27;;;;;;;0.00;0.00;;;;;;;26.90;46.42;102740.31;4962047;28;20101;-69
2022/08/09 10:57:53;;;;;;;0.00;0.00;;;;;;;27.19;44.43;102740.63;4968705;28;20149;-70
2022/08/09 11:00:28;;;;;;;0.00;0.00;;;;;;;27.14;43.19;102741.19;4965206;28;20173;-71
2022/08/09 11:02:54;;;;;;;0.00;0.00;;;;;;;27.10;44.96;102745.34;4964417;28;20379;-74
2022/08/09 11:05:21;;;;;;;0.00;0.00;;;;;;;27.37;44.94;102741.16;4959253;28;20035;-73
2022/08/09 11:07:47;;;;;;;0.00;0.00;;;;;;;27.24;44.09;102721.63;4968530;28;20030;-72
2022/08/09 11:10:13;;;;;;;0.00;0.00;;;;;;;27.49;45.11;102743.50;4965616;28;20034;-71
2022/08/09 11:12:38;;;;;;;0.00;0.00;;;;;;;27.54;42.81;102733.63;4965202;28;20066;-72
2022/08/09 11:15:12;;;;;;;0.00;0.00;;;;;;;27.53;41.55;102733.81;4964781;28;20026;-71
2022/08/09 11:17:41;;;;;;;0.00;0.00;;;;;;;27.40;43.51;102742.69;4955768;28;20049;-72
2022/08/09 11:20:09;;;;;;;0.00;0.00;;;;;;;27.99;43.43;102741.94;4962605;28;20030;-71
2022/08/09 11:22:44;;;;;;;0.00;0.00;;;;;;;28.28;42.50;102739.38;4962924;28;20023;-69